Weather at Paluknys Heli Base

Public forecast

Using degrees Celsius for public forecast. Weather courtesy of forecast.io.

Closest aviation weather report (METAR) to Paluknys Heli Base

Closest report is Vilnius International Airport, 13.4 nm (24.8 km) NE.

2024/04/12 17:50 (retrieved 17 minutes ago)

EYVI 121750Z 27006KT 220V310 CAVOK 12/04 Q1022 NOSIG

Closest aviation forecast (TAF) to Paluknys Heli Base

Closest forecast is Vilnius International Airport, 13.4 nm (24.8 km) NE.

2024/04/12 18:06 (retrieved 1 minute ago)

TAF TAF EYVI 121700Z 1218/1318 27014KT 9000 BKN020 BECMG 1221/1222 5000 RA BR BKN005 OVC010 TEMPO 1222/1306 VRB04KT 3000 SHRA BKN005 BKN015CB BECMG 1306/1308 9000 NSW TEMPO 1312/1318 29014G24KT BKN020CB